sensor_id;sensor_type;location;lat;lon;timestamp;temperature;humidity
6206;DHT22;3136;48.788;9.772;2022-09-02T00:00:31;11.60;1.00
6206;DHT22;3136;48.788;9.772;2022-09-02T00:02:56;11.50;99.90
6206;DHT22;3136;48.788;9.772;2022-09-02T00:05:22;11.50;1.00
6206;DHT22;3136;48.788;9.772;2022-09-02T00:07:47;11.40;1.00
6206;DHT22;3136;48.788;9.772;2022-09-02T00:10:13;11.40;99.90
6206;DHT22;3136;48.788;9.772;2022-09-02T00:12:39;11.50;99.90
6206;DHT22;3136;48.788;9.772;2022-09-02T00:15:04;11.50;99.90
6206;DHT22;3136;48.788;9.772;2022-09-02T00:17:30;11.40;1.00
6206;DHT22;3136;48.788;9.772;2022-09-02T00:19:56;11.40;99.90
6206;DHT22;3136;48.788;9.772;2022-09-02T00:22:21;11.40;1.00
6206;DHT22;3136;48.788;9.772;2022-09-02T00:24:48;11.30;1.00
6206;DHT22;3136;48.788;9.772;2022-09-02T00:27:13;11.30;99.90
6206;DHT22;3136;48.788;9.772;2022-09-02T00:29:39;11.20;99.90
6206;DHT22;3136;48.788;9.772;2022-09-02T00:32:05;11.30;1.00
6206;DHT22;3136;48.788;9.772;2022-09-02T00:34:30;11.10;1.00
6206;DHT22;3136;48.788;9.772;2022-09-02T00:36:57;11.10;99.90
6206;DHT22;3136;48.788;9.772;2022-09-02T00:39:23;11.00;1.00
6206;DHT22;3136;48.788;9.772;2022-09-02T00:41:49;11.20;1.00
6206;DHT22;3136;48.788;9.772;2022-09-02T00:44:16;11.10;18.70
6206;DHT22;3136;48.788;9.772;2022-09-02T00:46:43;11.00;1.00
6206;DHT22;3136;48.788;9.772;2022-09-02T00:49:18;11.30;1.00
6206;DHT22;3136;48.788;9.772;2022-09-02T00:51:58;10.90;99.90
6206;DHT22;3136;48.788;9.772;2022-09-02T00:54:26;11.00;1.00
6206;DHT22;3136;48.788;9.772;2022-09-02T00:56:52;10.90;1.00
6206;DHT22;3136;48.788;9.772;2022-09-02T00:59:48;10.90;1.00
6206;DHT22;3136;48.788;9.772;2022-09-02T01:02:11;10.90;99.90
6206;DHT22;3136;48.788;9.772;2022-09-02T01:04:37;10.90;1.00
6206;DHT22;3136;48.788;9.772;2022-09-02T01:07:04;10.80;1.00
6206;DHT22;3136;48.788;9.772;2022-09-02T01:09:30;10.80;99.90
6206;DHT22;3136;48.788;9.772;2022-09-02T01:11:58;10.70;84.80
6206;DHT22;3136;48.788;9.772;2022-09-02T01:14:27;10.70;99.90
6206;DHT22;3136;48.788;9.772;2022-09-02T01:16:55;10.70;1.00
6206;DHT22;3136;48.788;9.772;2022-09-02T01:19:37;10.70;99.90
6206;DHT22;3136;48.788;9.772;2022-09-02T01:22:15;10.70;19.40
6206;DHT22;3136;48.788;9.772;2022-09-02T01:24:41;10.70;1.00
6206;DHT22;3136;48.788;9.772;2022-09-02T01:27:06;10.70;1.00
6206;DHT22;3136;48.788;9.772;2022-09-02T01:29:32;10.60;1.00
6206;DHT22;3136;48.788;9.772;2022-09-02T01:31:58;10.50;99.90
6206;DHT22;3136;48.788;9.772;2022-09-02T01:34:24;10.50;1.00
6206;DHT22;3136;48.788;9.772;2022-09-02T01:36:50;10.60;1.00
6206;DHT22;3136;48.788;9.772;2022-09-02T01:39:16;10.50;41.20
6206;DHT22;3136;48.788;9.772;2022-09-02T01:41:41;10.40;99.90
6206;DHT22;3136;48.788;9.772;2022-09-02T01:44:09;10.40;99.90
6206;DHT22;3136;48.788;9.772;2022-09-02T01:46:35;10.50;61.10
6206;DHT22;3136;48.788;9.772;2022-09-02T01:49:01;10.40;23.90
6206;DHT22;3136;48.788;9.772;2022-09-02T01:51:26;10.40;1.00
6206;DHT22;3136;48.788;9.772;2022-09-02T01:53:52;10.40;40.20
6206;DHT22;3136;48.788;9.772;2022-09-02T01:56:18;10.30;1.00
6206;DHT22;3136;48.788;9.772;2022-09-02T01:58:43;10.30;1.00
6206;DHT22;3136;48.788;9.772;2022-09-02T02:01:09;10.30;99.90
6206;DHT22;3136;48.788;9.772;2022-09-02T02:03:36;10.30;99.90
6206;DHT22;3136;48.788;9.772;2022-09-02T02:06:13;10.30;1.00
6206;DHT22;3136;48.788;9.772;2022-09-02T02:08:41;10.20;1.00
6206;DHT22;3136;48.788;9.772;2022-09-02T02:11:07;10.10;1.00
6206;DHT22;3136;48.788;9.772;2022-09-02T02:13:33;10.10;1.00
6206;DHT22;3136;48.788;9.772;2022-09-02T02:15:59;10.00;40.00
6206;DHT22;3136;48.788;9.772;2022-09-02T02:18:25;10.00;47.00
6206;DHT22;3136;48.788;9.772;2022-09-02T02:20:51;10.20;1.00
6206;DHT22;3136;48.788;9.772;2022-09-02T02:23:16;10.00;1.00
6206;DHT22;3136;48.788;9.772;2022-09-02T02:25:42;10.00;1.00
6206;DHT22;3136;48.788;9.772;2022-09-02T02:28:08;9.90;99.90
6206;DHT22;3136;48.788;9.772;2022-09-02T02:30:34;10.70;1.00
6206;DHT22;3136;48.788;9.772;2022-09-02T02:32:59;9.90;1.00
6206;DHT22;3136;48.788;9.772;2022-09-02T02:35:25;9.90;1.00
6206;DHT22;3136;48.788;9.772;2022-09-02T02:37:51;9.90;1.00
6206;DHT22;3136;48.788;9.772;2022-09-02T02:40:20;9.80;1.00
6206;DHT22;3136;48.788;9.772;2022-09-02T02:42:46;9.80;1.00
6206;DHT22;3136;48.788;9.772;2022-09-02T02:45:12;9.80;1.00
6206;DHT22;3136;48.788;9.772;2022-09-02T02:47:39;9.70;1.00
6206;DHT22;3136;48.788;9.772;2022-09-02T02:50:11;9.70;1.00
6206;DHT22;3136;48.788;9.772;2022-09-02T02:52:41;9.70;4.20
6206;DHT22;3136;48.788;9.772;2022-09-02T02:55:08;10.20;1.00
6206;DHT22;3136;48.788;9.772;2022-09-02T02:57:36;9.60;24.10
6206;DHT22;3136;48.788;9.772;2022-09-02T03:00:32;9.60;89.10
6206;DHT22;3136;48.788;9.772;2022-09-02T03:03:05;10.10;99.90
6206;DHT22;3136;48.788;9.772;2022-09-02T03:05:32;9.70;99.90
6206;DHT22;3136;48.788;9.772;2022-09-02T03:08:00;9.60;99.90
6206;DHT22;3136;48.788;9.772;2022-09-02T03:10:26;9.60;99.90
6206;DHT22;3136;48.788;9.772;2022-09-02T03:12:51;9.70;36.50
6206;DHT22;3136;48.788;9.772;2022-09-02T03:15:18;9.60;99.90
6206;DHT22;3136;48.788;9.772;2022-09-02T03:17:46;9.60;50.80
6206;DHT22;3136;48.788;9.772;2022-09-02T03:20:12;9.60;1.00
6206;DHT22;3136;48.788;9.772;2022-09-02T03:22:43;9.50;1.00
6206;DHT22;3136;48.788;9.772;2022-09-02T03:25:11;9.50;1.00
6206;DHT22;3136;48.788;9.772;2022-09-02T03:27:38;9.50;56.30
6206;DHT22;3136;48.788;9.772;2022-09-02T03:30:07;9.50;93.40
6206;DHT22;3136;48.788;9.772;2022-09-02T03:32:33;9.50;73.90
6206;DHT22;3136;48.788;9.772;2022-09-02T03:35:00;9.40;1.00
6206;DHT22;3136;48.788;9.772;2022-09-02T03:37:26;9.40;99.90
6206;DHT22;3136;48.788;9.772;2022-09-02T03:39:51;9.40;99.90
6206;DHT22;3136;48.788;9.772;2022-09-02T03:42:17;9.50;99.90
6206;DHT22;3136;48.788;9.772;2022-09-02T03:44:43;9.40;99.90
6206;DHT22;3136;48.788;9.772;2022-09-02T03:47:08;9.40;99.90
6206;DHT22;3136;48.788;9.772;2022-09-02T03:49:34;9.40;99.90
6206;DHT22;3136;48.788;9.772;2022-09-02T03:52:00;9.30;99.90
6206;DHT22;3136;48.788;9.772;2022-09-02T03:54:26;9.30;99.90
6206;DHT22;3136;48.788;9.772;2022-09-02T03:56:51;9.30;99.90
6206;DHT22;3136;48.788;9.772;2022-09-02T03:59:17;9.30;99.90
6206;DHT22;3136;48.788;9.772;2022-09-02T04:01:43;9.30;99.90
6206;DHT22;3136;48.788;9.772;2022-09-02T04:04:09;9.20;99.90
6206;DHT22;3136;48.788;9.772;2022-09-02T04:06:35;9.50;99.90
6206;DHT22;3136;48.788;9.772;2022-09-02T04:09:01;9.40;99.90
6206;DHT22;3136;48.788;9.772;2022-09-02T04:11:27;9.20;99.90
6206;DHT22;3136;48.788;9.772;2022-09-02T04:13:53;9.20;1.00
6206;DHT22;3136;48.788;9.772;2022-09-02T04:16:21;9.20;99.90
6206;DHT22;3136;48.788;9.772;2022-09-02T04:18:56;9.20;1.00
6206;DHT22;3136;48.788;9.772;2022-09-02T04:21:26;9.20;1.00
6206;DHT22;3136;48.788;9.772;2022-09-02T04:23:52;9.20;1.00
6206;DHT22;3136;48.788;9.772;2022-09-02T04:26:18;9.10;1.00
6206;DHT22;3136;48.788;9.772;2022-09-02T04:28:45;9.20;1.00
6206;DHT22;3136;48.788;9.772;2022-09-02T04:31:13;9.10;1.00
6206;DHT22;3136;48.788;9.772;2022-09-02T04:33:39;9.10;1.00
6206;DHT22;3136;48.788;9.772;2022-09-02T04:36:06;9.10;1.00
6206;DHT22;3136;48.788;9.772;2022-09-02T04:38:33;9.10;1.00
6206;DHT22;3136;48.788;9.772;2022-09-02T04:40:59;9.80;1.00
6206;DHT22;3136;48.788;9.772;2022-09-02T04:43:24;9.10;1.00
6206;DHT22;3136;48.788;9.772;2022-09-02T04:45:50;9.10;1.00
6206;DHT22;3136;48.788;9.772;2022-09-02T04:48:16;9.20;1.00
6206;DHT22;3136;48.788;9.772;2022-09-02T04:50:43;9.00;1.00
6206;DHT22;3136;48.788;9.772;2022-09-02T04:53:10;9.10;1.00
6206;DHT22;3136;48.788;9.772;2022-09-02T04:55:39;9.10;1.00
6206;DHT22;3136;48.788;9.772;2022-09-02T04:58:05;9.00;1.00
6206;DHT22;3136;48.788;9.772;2022-09-02T05:00:30;9.10;1.00
6206;DHT22;3136;48.788;9.772;2022-09-02T05:02:56;9.00;1.00
6206;DHT22;3136;48.788;9.772;2022-09-02T05:05:22;9.00;1.00
6206;DHT22;3136;48.788;9.772;2022-09-02T05:07:47;8.90;1.00
6206;DHT22;3136;48.788;9.772;2022-09-02T05:10:13;9.10;1.00
6206;DHT22;3136;48.788;9.772;2022-09-02T05:12:39;9.10;1.00
6206;DHT22;3136;48.788;9.772;2022-09-02T05:15:06;9.10;1.00
6206;DHT22;3136;48.788;9.772;2022-09-02T05:17:33;9.10;1.00
6206;DHT22;3136;48.788;9.772;2022-09-02T05:20:00;9.20;1.00
6206;DHT22;3136;48.788;9.772;2022-09-02T05:22:26;9.20;1.00
6206;DHT22;3136;48.788;9.772;2022-09-02T05:24:54;9.20;1.00
6206;DHT22;3136;48.788;9.772;2022-09-02T05:27:20;9.20;1.00
6206;DHT22;3136;48.788;9.772;2022-09-02T05:29:45;9.20;1.00
6206;DHT22;3136;48.788;9.772;2022-09-02T05:32:11;9.20;1.00
6206;DHT22;3136;48.788;9.772;2022-09-02T05:34:37;9.20;1.00
6206;DHT22;3136;48.788;9.772;2022-09-02T05:37:03;9.20;1.00
6206;DHT22;3136;48.788;9.772;2022-09-02T05:39:30;9.20;1.00
6206;DHT22;3136;48.788;9.772;2022-09-02T05:41:56;9.30;1.00
6206;DHT22;3136;48.788;9.772;2022-09-02T05:44:21;9.30;1.00
6206;DHT22;3136;48.788;9.772;2022-09-02T05:46:47;9.40;1.00
6206;DHT22;3136;48.788;9.772;2022-09-02T05:49:13;9.40;1.00
6206;DHT22;3136;48.788;9.772;2022-09-02T05:51:47;9.50;1.00
6206;DHT22;3136;48.788;9.772;2022-09-02T05:54:28;9.60;1.00
6206;DHT22;3136;48.788;9.772;2022-09-02T05:56:57;9.70;1.00
6206;DHT22;3136;48.788;9.772;2022-09-02T05:59:24;9.80;1.00
6206;DHT22;3136;48.788;9.772;2022-09-02T06:01:52;9.80;1.00
6206;DHT22;3136;48.788;9.772;2022-09-02T06:04:18;9.90;1.00
6206;DHT22;3136;48.788;9.772;2022-09-02T06:06:44;10.00;1.00
6206;DHT22;3136;48.788;9.772;2022-09-02T06:09:12;10.10;1.00
6206;DHT22;3136;48.788;9.772;2022-09-02T06:11:40;10.20;99.90
6206;DHT22;3136;48.788;9.772;2022-09-02T06:14:09;10.40;99.90
6206;DHT22;3136;48.788;9.772;2022-09-02T06:16:37;10.40;99.90
6206;DHT22;3136;48.788;9.772;2022-09-02T06:19:03;10.50;99.90
6206;DHT22;3136;48.788;9.772;2022-09-02T06:21:29;10.70;99.90
6206;DHT22;3136;48.788;9.772;2022-09-02T06:23:55;10.70;61.50
6206;DHT22;3136;48.788;9.772;2022-09-02T06:26:20;10.80;1.00
6206;DHT22;3136;48.788;9.772;2022-09-02T06:28:46;11.00;1.00
6206;DHT22;3136;48.788;9.772;2022-09-02T06:31:16;11.30;1.00
6206;DHT22;3136;48.788;9.772;2022-09-02T06:33:43;11.50;99.90
6206;DHT22;3136;48.788;9.772;2022-09-02T06:36:13;11.70;1.00
6206;DHT22;3136;48.788;9.772;2022-09-02T06:38:40;12.00;1.00
6206;DHT22;3136;48.788;9.772;2022-09-02T06:41:07;12.20;99.90
6206;DHT22;3136;48.788;9.772;2022-09-02T06:43:34;12.50;99.90
6206;DHT22;3136;48.788;9.772;2022-09-02T06:46:00;12.70;1.00
6206;DHT22;3136;48.788;9.772;2022-09-02T06:48:25;13.00;1.00
6206;DHT22;3136;48.788;9.772;2022-09-02T06:50:51;13.20;99.90
6206;DHT22;3136;48.788;9.772;2022-09-02T06:53:17;13.30;1.00
6206;DHT22;3136;48.788;9.772;2022-09-02T06:55:44;13.60;1.00
6206;DHT22;3136;48.788;9.772;2022-09-02T06:58:11;13.70;99.90
6206;DHT22;3136;48.788;9.772;2022-09-02T07:00:37;13.80;99.90
6206;DHT22;3136;48.788;9.772;2022-09-02T07:03:04;13.90;99.90
6206;DHT22;3136;48.788;9.772;2022-09-02T07:05:58;14.10;99.90
6206;DHT22;3136;48.788;9.772;2022-09-02T07:08:24;14.20;99.90
6206;DHT22;3136;48.788;9.772;2022-09-02T07:10:50;14.40;1.00
6206;DHT22;3136;48.788;9.772;2022-09-02T07:13:15;14.60;1.00
6206;DHT22;3136;48.788;9.772;2022-09-02T07:15:41;14.70;1.00
6206;DHT22;3136;48.788;9.772;2022-09-02T07:18:07;14.90;1.00
6206;DHT22;3136;48.788;9.772;2022-09-02T07:20:32;15.00;1.00
6206;DHT22;3136;48.788;9.772;2022-09-02T07:22:58;15.10;99.90
6206;DHT22;3136;48.788;9.772;2022-09-02T07:25:23;15.30;99.90
6206;DHT22;3136;48.788;9.772;2022-09-02T07:27:49;15.40;99.90
6206;DHT22;3136;48.788;9.772;2022-09-02T07:30:16;15.50;99.90
6206;DHT22;3136;48.788;9.772;2022-09-02T07:32:41;15.60;99.90
6206;DHT22;3136;48.788;9.772;2022-09-02T07:35:07;15.60;99.90
6206;DHT22;3136;48.788;9.772;2022-09-02T07:37:33;15.80;99.90
6206;DHT22;3136;48.788;9.772;2022-09-02T07:40:02;15.70;99.90
6206;DHT22;3136;48.788;9.772;2022-09-02T07:42:28;16.00;99.90
6206;DHT22;3136;48.788;9.772;2022-09-02T07:44:53;16.20;99.90
6206;DHT22;3136;48.788;9.772;2022-09-02T07:47:19;16.00;99.90
6206;DHT22;3136;48.788;9.772;2022-09-02T07:49:45;16.10;99.90
6206;DHT22;3136;48.788;9.772;2022-09-02T07:52:10;16.20;99.90
6206;DHT22;3136;48.788;9.772;2022-09-02T07:54:36;16.30;99.90
6206;DHT22;3136;48.788;9.772;2022-09-02T07:57:02;16.40;99.90
6206;DHT22;3136;48.788;9.772;2022-09-02T07:59:27;16.50;99.90
6206;DHT22;3136;48.788;9.772;2022-09-02T08:01:53;16.60;99.90
6206;DHT22;3136;48.788;9.772;2022-09-02T08:04:19;16.70;99.90
6206;DHT22;3136;48.788;9.772;2022-09-02T08:06:48;16.80;99.90
6206;DHT22;3136;48.788;9.772;2022-09-02T08:09:15;16.90;99.90
6206;DHT22;3136;48.788;9.772;2022-09-02T08:11:43;17.00;99.90
6206;DHT22;3136;48.788;9.772;2022-09-02T08:14:13;17.10;99.90
6206;DHT22;3136;48.788;9.772;2022-09-02T08:16:39;17.20;99.90
6206;DHT22;3136;48.788;9.772;2022-09-02T08:19:06;17.30;99.90
6206;DHT22;3136;48.788;9.772;2022-09-02T08:21:32;17.40;99.90
6206;DHT22;3136;48.788;9.772;2022-09-02T08:23:57;17.40;99.90
6206;DHT22;3136;48.788;9.772;2022-09-02T08:26:24;17.60;99.90
6206;DHT22;3136;48.788;9.772;2022-09-02T08:28:53;17.70;99.90
6206;DHT22;3136;48.788;9.772;2022-09-02T08:31:19;17.90;99.90
6206;DHT22;3136;48.788;9.772;2022-09-02T08:33:44;17.90;99.90
6206;DHT22;3136;48.788;9.772;2022-09-02T08:36:10;17.90;99.90
6206;DHT22;3136;48.788;9.772;2022-09-02T08:38:40;18.20;99.90
6206;DHT22;3136;48.788;9.772;2022-09-02T08:41:19;18.10;99.90
6206;DHT22;3136;48.788;9.772;2022-09-02T08:43:46;18.10;99.90
6206;DHT22;3136;48.788;9.772;2022-09-02T08:46:15;18.20;99.90
6206;DHT22;3136;48.788;9.772;2022-09-02T08:48:56;18.20;99.90
6206;DHT22;3136;48.788;9.772;2022-09-02T08:51:34;18.30;99.90
6206;DHT22;3136;48.788;9.772;2022-09-02T08:56:34;18.40;99.90
6206;DHT22;3136;48.788;9.772;2022-09-02T08:59:02;18.50;99.90
6206;DHT22;3136;48.788;9.772;2022-09-02T09:09:57;19.00;99.90
6206;DHT22;3136;48.788;9.772;2022-09-02T09:12:49;19.10;99.90
6206;DHT22;3136;48.788;9.772;2022-09-02T09:17:59;19.40;99.90
6206;DHT22;3136;48.788;9.772;2022-09-02T09:20:30;19.70;99.90
6206;DHT22;3136;48.788;9.772;2022-09-02T09:23:00;19.80;99.90
6206;DHT22;3136;48.788;9.772;2022-09-02T09:25:28;19.80;99.90
6206;DHT22;3136;48.788;9.772;2022-09-02T09:28:00;19.90;99.90
6206;DHT22;3136;48.788;9.772;2022-09-02T09:30:27;19.90;99.90
6206;DHT22;3136;48.788;9.772;2022-09-02T09:32:55;19.90;99.90
6206;DHT22;3136;48.788;9.772;2022-09-02T09:35:48;20.10;99.90
6206;DHT22;3136;48.788;9.772;2022-09-02T09:38:15;20.20;99.90
6206;DHT22;3136;48.788;9.772;2022-09-02T09:40:40;20.30;99.90
6206;DHT22;3136;48.788;9.772;2022-09-02T09:45:46;20.40;99.90
6206;DHT22;3136;48.788;9.772;2022-09-02T09:48:25;20.50;99.90
6206;DHT22;3136;48.788;9.772;2022-09-02T09:53:29;20.50;99.90
6206;DHT22;3136;48.788;9.772;2022-09-02T10:00:55;20.60;99.90
6206;DHT22;3136;48.788;9.772;2022-09-02T10:03:26;20.70;99.90
6206;DHT22;3136;48.788;9.772;2022-09-02T10:05:55;20.80;99.90
6206;DHT22;3136;48.788;9.772;2022-09-02T10:08:26;20.90;99.90
6206;DHT22;3136;48.788;9.772;2022-09-02T10:11:03;21.00;99.90
6206;DHT22;3136;48.788;9.772;2022-09-02T10:13:32;21.10;99.90
6206;DHT22;3136;48.788;9.772;2022-09-02T10:24:22;22.20;99.90
6206;DHT22;3136;48.788;9.772;2022-09-02T10:26:55;23.10;99.90
6206;DHT22;3136;48.788;9.772;2022-09-02T10:29:28;24.40;99.90
6206;DHT22;3136;48.788;9.772;2022-09-02T10:37:17;26.80;99.90
6206;DHT22;3136;48.788;9.772;2022-09-02T10:40:03;27.60;99.90
6206;DHT22;3136;48.788;9.772;2022-09-02T10:43:00;28.40;99.90
6206;DHT22;3136;48.788;9.772;2022-09-02T10:51:18;29.00;99.90
6206;DHT22;3136;48.788;9.772;2022-09-02T10:59:12;29.30;99.90
6206;DHT22;3136;48.788;9.772;2022-09-02T11:01:48;29.90;99.90
6206;DHT22;3136;48.788;9.772;2022-09-02T11:06:46;30.50;99.90
6206;DHT22;3136;48.788;9.772;2022-09-02T11:09:27;30.00;99.90
6206;DHT22;3136;48.788;9.772;2022-09-02T11:12:03;30.70;99.90
6206;DHT22;3136;48.788;9.772;2022-09-02T11:14:39;30.60;99.90
6206;DHT22;3136;48.788;9.772;2022-09-02T11:17:20;31.00;99.90
6206;DHT22;3136;48.788;9.772;2022-09-02T11:20:03;31.30;99.90
6206;DHT22;3136;48.788;9.772;2022-09-02T11:22:51;31.20;99.90
6206;DHT22;3136;48.788;9.772;2022-09-02T11:25:30;31.00;99.90
6206;DHT22;3136;48.788;9.772;2022-09-02T11:36:16;30.70;99.90
6206;DHT22;3136;48.788;9.772;2022-09-02T11:49:32;32.00;98.60
6206;DHT22;3136;48.788;9.772;2022-09-02T11:52:20;32.00;98.60
6206;DHT22;3136;48.788;9.772;2022-09-02T11:55:05;31.90;98.20
6206;DHT22;3136;48.788;9.772;2022-09-02T11:57:32;32.50;97.70
6206;DHT22;3136;48.788;9.772;2022-09-02T12:02:48;32.20;96.80
6206;DHT22;3136;48.788;9.772;2022-09-02T12:07:57;32.90;95.60
6206;DHT22;3136;48.788;9.772;2022-09-02T12:13:31;33.20;94.80
6206;DHT22;3136;48.788;9.772;2022-09-02T12:21:19;32.60;94.10
6206;DHT22;3136;48.788;9.772;2022-09-02T12:26:27;33.00;94.00
6206;DHT22;3136;48.788;9.772;2022-09-02T12:29:29;33.20;93.60
6206;DHT22;3136;48.788;9.772;2022-09-02T12:31:54;33.40;93.50
6206;DHT22;3136;48.788;9.772;2022-09-02T12:36:52;33.80;92.60
6206;DHT22;3136;48.788;9.772;2022-09-02T12:47:04;33.40;91.40
6206;DHT22;3136;48.788;9.772;2022-09-02T12:49:59;33.40;91.50
6206;DHT22;3136;48.788;9.772;2022-09-02T12:55:09;33.80;91.80
6206;DHT22;3136;48.788;9.772;2022-09-02T12:57:39;33.70;91.90
6206;DHT22;3136;48.788;9.772;2022-09-02T13:00:05;33.40;91.20
6206;DHT22;3136;48.788;9.772;2022-09-02T13:05:44;33.50;90.70
6206;DHT22;3136;48.788;9.772;2022-09-02T13:11:18;33.10;88.60
6206;DHT22;3136;48.788;9.772;2022-09-02T13:14:10;33.20;89.10
6206;DHT22;3136;48.788;9.772;2022-09-02T13:28:31;33.00;88.60
6206;DHT22;3136;48.788;9.772;2022-09-02T13:31:21;32.60;85.20
6206;DHT22;3136;48.788;9.772;2022-09-02T13:34:04;32.70;86.40
6206;DHT22;3136;48.788;9.772;2022-09-02T13:36:37;32.70;85.40
6206;DHT22;3136;48.788;9.772;2022-09-02T13:39:14;33.10;86.50
6206;DHT22;3136;48.788;9.772;2022-09-02T13:41:40;33.10;85.80
6206;DHT22;3136;48.788;9.772;2022-09-02T13:44:23;33.00;84.80
6206;DHT22;3136;48.788;9.772;2022-09-02T13:47:03;32.90;87.40
6206;DHT22;3136;48.788;9.772;2022-09-02T13:49:39;32.40;84.20
6206;DHT22;3136;48.788;9.772;2022-09-02T13:52:17;32.10;83.90
6206;DHT22;3136;48.788;9.772;2022-09-02T13:54:54;31.80;83.40
6206;DHT22;3136;48.788;9.772;2022-09-02T13:57:24;31.80;85.70
6206;DHT22;3136;48.788;9.772;2022-09-02T13:59:53;31.30;83.50
6206;DHT22;3136;48.788;9.772;2022-09-02T14:02:21;30.90;86.00
6206;DHT22;3136;48.788;9.772;2022-09-02T14:04:49;29.90;86.10
6206;DHT22;3136;48.788;9.772;2022-09-02T14:07:20;29.30;88.60
6206;DHT22;3136;48.788;9.772;2022-09-02T14:09:46;28.60;90.00
6206;DHT22;3136;48.788;9.772;2022-09-02T14:12:12;28.10;90.20
6206;DHT22;3136;48.788;9.772;2022-09-02T14:14:40;28.10;90.40
6206;DHT22;3136;48.788;9.772;2022-09-02T14:17:20;28.00;91.10
6206;DHT22;3136;48.788;9.772;2022-09-02T14:19:47;27.70;90.70
6206;DHT22;3136;48.788;9.772;2022-09-02T14:22:26;27.30;91.70
6206;DHT22;3136;48.788;9.772;2022-09-02T14:24:52;27.00;91.20
6206;DHT22;3136;48.788;9.772;2022-09-02T14:27:21;26.50;92.50
6206;DHT22;3136;48.788;9.772;2022-09-02T14:29:57;26.10;92.70
6206;DHT22;3136;48.788;9.772;2022-09-02T14:32:24;25.60;93.60
6206;DHT22;3136;48.788;9.772;2022-09-02T14:35:21;25.10;94.30
6206;DHT22;3136;48.788;9.772;2022-09-02T14:37:52;24.90;94.00
6206;DHT22;3136;48.788;9.772;2022-09-02T14:40:36;24.70;94.90
6206;DHT22;3136;48.788;9.772;2022-09-02T14:43:03;24.50;95.50
6206;DHT22;3136;48.788;9.772;2022-09-02T14:45:36;24.30;96.50
6206;DHT22;3136;48.788;9.772;2022-09-02T14:48:10;24.20;96.30
6206;DHT22;3136;48.788;9.772;2022-09-02T14:50:39;24.20;96.00
6206;DHT22;3136;48.788;9.772;2022-09-02T14:53:08;24.10;96.00
6206;DHT22;3136;48.788;9.772;2022-09-02T14:55:52;24.20;96.00
6206;DHT22;3136;48.788;9.772;2022-09-02T14:58:20;24.00;96.30
6206;DHT22;3136;48.788;9.772;2022-09-02T15:00:49;24.00;97.00
6206;DHT22;3136;48.788;9.772;2022-09-02T15:03:16;23.90;97.20
6206;DHT22;3136;48.788;9.772;2022-09-02T15:05:43;23.90;97.40
6206;DHT22;3136;48.788;9.772;2022-09-02T15:08:09;23.90;97.60
6206;DHT22;3136;48.788;9.772;2022-09-02T15:10:36;23.80;97.20
6206;DHT22;3136;48.788;9.772;2022-09-02T15:13:03;23.80;97.10
6206;DHT22;3136;48.788;9.772;2022-09-02T15:15:29;23.70;97.50
6206;DHT22;3136;48.788;9.772;2022-09-02T15:17:54;23.60;97.40
6206;DHT22;3136;48.788;9.772;2022-09-02T15:20:20;23.50;98.00
6206;DHT22;3136;48.788;9.772;2022-09-02T15:22:46;23.50;98.90
6206;DHT22;3136;48.788;9.772;2022-09-02T15:25:12;23.50;97.40
6206;DHT22;3136;48.788;9.772;2022-09-02T15:27:38;23.50;97.80
6206;DHT22;3136;48.788;9.772;2022-09-02T15:30:05;23.40;98.00
6206;DHT22;3136;48.788;9.772;2022-09-02T15:32:33;23.30;98.00
6206;DHT22;3136;48.788;9.772;2022-09-02T15:35:00;23.10;97.40
6206;DHT22;3136;48.788;9.772;2022-09-02T15:37:25;23.20;98.40
6206;DHT22;3136;48.788;9.772;2022-09-02T15:39:52;23.10;97.90
6206;DHT22;3136;48.788;9.772;2022-09-02T15:42:17;23.20;98.40
6206;DHT22;3136;48.788;9.772;2022-09-02T15:44:43;23.10;98.50
6206;DHT22;3136;48.788;9.772;2022-09-02T15:47:09;23.20;98.10
6206;DHT22;3136;48.788;9.772;2022-09-02T15:49:34;23.10;98.80
6206;DHT22;3136;48.788;9.772;2022-09-02T15:52:00;23.10;98.40
6206;DHT22;3136;48.788;9.772;2022-09-02T15:54:27;23.10;99.40
6206;DHT22;3136;48.788;9.772;2022-09-02T15:56:55;23.10;99.00
6206;DHT22;3136;48.788;9.772;2022-09-02T15:59:21;23.10;98.60
6206;DHT22;3136;48.788;9.772;2022-09-02T16:01:49;23.10;99.40
6206;DHT22;3136;48.788;9.772;2022-09-02T16:04:15;23.10;99.60
6206;DHT22;3136;48.788;9.772;2022-09-02T16:06:44;23.00;98.90
6206;DHT22;3136;48.788;9.772;2022-09-02T16:09:13;22.90;98.70
6206;DHT22;3136;48.788;9.772;2022-09-02T16:11:44;22.90;99.10
6206;DHT22;3136;48.788;9.772;2022-09-02T16:14:11;22.80;99.10
6206;DHT22;3136;48.788;9.772;2022-09-02T16:16:37;22.70;99.40
6206;DHT22;3136;48.788;9.772;2022-09-02T16:19:05;22.70;99.40
6206;DHT22;3136;48.788;9.772;2022-09-02T16:21:31;22.60;99.30
6206;DHT22;3136;48.788;9.772;2022-09-02T16:23:57;22.50;99.50
6206;DHT22;3136;48.788;9.772;2022-09-02T16:26:28;22.40;99.90
6206;DHT22;3136;48.788;9.772;2022-09-02T16:28:56;22.40;99.90
6206;DHT22;3136;48.788;9.772;2022-09-02T16:31:24;22.30;99.90
6206;DHT22;3136;48.788;9.772;2022-09-02T16:33:55;22.20;99.90
6206;DHT22;3136;48.788;9.772;2022-09-02T16:36:22;22.20;99.90
6206;DHT22;3136;48.788;9.772;2022-09-02T16:38:48;22.10;99.90
6206;DHT22;3136;48.788;9.772;2022-09-02T16:41:44;22.10;99.90
6206;DHT22;3136;48.788;9.772;2022-09-02T16:44:16;22.00;99.90
6206;DHT22;3136;48.788;9.772;2022-09-02T16:46:43;22.00;99.90
6206;DHT22;3136;48.788;9.772;2022-09-02T16:49:10;21.90;99.90
6206;DHT22;3136;48.788;9.772;2022-09-02T16:51:36;21.80;99.90
6206;DHT22;3136;48.788;9.772;2022-09-02T16:54:05;21.80;99.90
6206;DHT22;3136;48.788;9.772;2022-09-02T16:56:31;21.70;99.90
6206;DHT22;3136;48.788;9.772;2022-09-02T16:59:02;21.70;99.90
6206;DHT22;3136;48.788;9.772;2022-09-02T17:01:28;21.60;99.90
6206;DHT22;3136;48.788;9.772;2022-09-02T17:03:54;21.40;99.90
6206;DHT22;3136;48.788;9.772;2022-09-02T17:06:19;21.40;99.90
6206;DHT22;3136;48.788;9.772;2022-09-02T17:08:45;21.20;99.90
6206;DHT22;3136;48.788;9.772;2022-09-02T17:11:20;21.10;99.90
6206;DHT22;3136;48.788;9.772;2022-09-02T17:14:09;21.10;99.90
6206;DHT22;3136;48.788;9.772;2022-09-02T17:16:38;20.90;99.90
6206;DHT22;3136;48.788;9.772;2022-09-02T17:19:04;20.80;99.90
6206;DHT22;3136;48.788;9.772;2022-09-02T17:21:44;20.80;99.90
6206;DHT22;3136;48.788;9.772;2022-09-02T17:24:13;20.60;99.90
6206;DHT22;3136;48.788;9.772;2022-09-02T17:26:40;20.50;99.90
6206;DHT22;3136;48.788;9.772;2022-09-02T17:29:12;20.30;99.90
6206;DHT22;3136;48.788;9.772;2022-09-02T17:31:38;20.10;99.90
6206;DHT22;3136;48.788;9.772;2022-09-02T17:34:05;19.90;99.90
6206;DHT22;3136;48.788;9.772;2022-09-02T17:36:34;19.60;99.90
6206;DHT22;3136;48.788;9.772;2022-09-02T17:39:06;19.40;99.90
6206;DHT22;3136;48.788;9.772;2022-09-02T17:41:31;19.30;99.90
6206;DHT22;3136;48.788;9.772;2022-09-02T17:44:15;19.20;99.90
6206;DHT22;3136;48.788;9.772;2022-09-02T17:46:42;19.00;99.90
6206;DHT22;3136;48.788;9.772;2022-09-02T17:49:09;18.90;99.90
6206;DHT22;3136;48.788;9.772;2022-09-02T17:51:35;18.80;99.90
6206;DHT22;3136;48.788;9.772;2022-09-02T17:54:00;18.70;99.90
6206;DHT22;3136;48.788;9.772;2022-09-02T17:59:31;18.40;99.90
6206;DHT22;3136;48.788;9.772;2022-09-02T18:05:03;18.10;99.90
6206;DHT22;3136;48.788;9.772;2022-09-02T18:10:12;17.90;99.90
6206;DHT22;3136;48.788;9.772;2022-09-02T18:12:38;17.70;99.90
6206;DHT22;3136;48.788;9.772;2022-09-02T18:15:05;17.70;99.90
6206;DHT22;3136;48.788;9.772;2022-09-02T18:23:19;17.30;99.90
6206;DHT22;3136;48.788;9.772;2022-09-02T18:31:09;16.90;99.90
6206;DHT22;3136;48.788;9.772;2022-09-02T18:36:21;16.80;99.90
6206;DHT22;3136;48.788;9.772;2022-09-02T18:42:20;16.70;99.90
6206;DHT22;3136;48.788;9.772;2022-09-02T18:45:08;16.60;99.90